createdAt,value
2023-02-16T00:00:24.080Z,7.50
2023-02-16T00:02:51.429Z,7.50
2023-02-16T00:05:31.009Z,7.50
2023-02-16T00:07:59.923Z,7.40
2023-02-16T00:10:32.810Z,7.40
2023-02-16T00:13:35.970Z,7.40
2023-02-16T00:16:03.313Z,7.40
2023-02-16T00:18:30.570Z,7.40
2023-02-16T00:20:57.792Z,7.40
2023-02-16T00:23:25.122Z,7.30
2023-02-16T00:25:52.405Z,7.30
2023-02-16T00:28:21.150Z,7.30
2023-02-16T00:30:50.511Z,7.20
2023-02-16T00:33:20.287Z,7.30
2023-02-16T00:35:48.268Z,7.20
2023-02-16T00:38:16.622Z,7.20
2023-02-16T00:40:43.991Z,7.20
2023-02-16T00:43:26.400Z,7.20
2023-02-16T00:45:53.985Z,7.20
2023-02-16T00:48:21.944Z,7.20
2023-02-16T00:50:49.393Z,7.10
2023-02-16T00:53:18.475Z,7.10
2023-02-16T00:55:46.152Z,7.10
2023-02-16T00:58:25.166Z,7.00
2023-02-16T01:00:55.207Z,7.00
2023-02-16T01:03:27.631Z,7.00
2023-02-16T01:06:14.230Z,6.90
2023-02-16T01:09:00.346Z,6.90
2023-02-16T01:11:28.501Z,6.80
2023-02-16T01:13:56.877Z,6.80
2023-02-16T01:16:32.922Z,6.80
2023-02-16T01:19:00.150Z,6.70
2023-02-16T01:21:27.393Z,6.70
2023-02-16T01:23:54.640Z,6.60
2023-02-16T01:26:22.656Z,6.70
2023-02-16T01:28:49.990Z,6.70
2023-02-16T01:31:17.828Z,6.60
2023-02-16T01:33:45.241Z,6.60
2023-02-16T01:36:34.565Z,6.60
2023-02-16T01:39:03.029Z,6.60
2023-02-16T01:42:00.523Z,6.50
2023-02-16T01:44:34.411Z,6.50
2023-02-16T01:47:24.305Z,6.50
2023-02-16T01:49:57.544Z,6.40
2023-02-16T01:52:34.642Z,6.40
2023-02-16T01:55:13.041Z,6.40
2023-02-16T01:57:46.024Z,6.40
2023-02-16T02:00:15.707Z,6.40
2023-02-16T02:02:50.294Z,6.40
2023-02-16T02:05:35.218Z,6.30
2023-02-16T02:08:38.750Z,6.40
2023-02-16T02:11:18.639Z,6.40
2023-02-16T02:14:37.060Z,6.30
2023-02-16T02:17:12.271Z,6.30
2023-02-16T02:20:01.021Z,6.30
2023-02-16T02:23:16.182Z,6.30
2023-02-16T02:26:15.054Z,6.30
2023-02-16T02:28:52.080Z,6.20
2023-02-16T02:31:38.890Z,6.20
2023-02-16T02:34:21.046Z,6.20
2023-02-16T02:37:12.164Z,6.10
2023-02-16T02:40:05.507Z,6.20
2023-02-16T02:42:48.233Z,6.10
2023-02-16T02:45:33.797Z,6.10
2023-02-16T02:48:01.768Z,6.10
2023-02-16T02:50:40.674Z,6.00
2023-02-16T02:53:14.629Z,6.00
2023-02-16T02:56:07.966Z,6.00
2023-02-16T02:59:12.456Z,6.00
2023-02-16T03:01:47.185Z,5.90
2023-02-16T03:04:18.587Z,5.90
2023-02-16T03:06:51.051Z,5.90
2023-02-16T03:09:19.033Z,5.90
2023-02-16T03:12:07.505Z,5.90
2023-02-16T03:14:34.773Z,5.80
2023-02-16T03:17:39.135Z,5.90
2023-02-16T03:20:27.800Z,5.90
2023-02-16T03:23:14.973Z,5.90
2023-02-16T03:26:01.090Z,5.90
2023-02-16T03:28:49.789Z,5.90
2023-02-16T03:31:23.939Z,5.90
2023-02-16T03:33:55.189Z,5.80
2023-02-16T03:36:24.914Z,5.90
2023-02-16T03:38:54.072Z,5.90
2023-02-16T03:41:21.419Z,5.80
2023-02-16T03:43:48.823Z,5.80
2023-02-16T03:46:16.117Z,5.80
2023-02-16T03:48:43.380Z,5.70
2023-02-16T03:51:10.637Z,5.80
2023-02-16T03:53:37.846Z,5.80
2023-02-16T03:56:05.223Z,5.80
2023-02-16T03:58:33.401Z,5.80
2023-02-16T04:01:00.639Z,5.80
2023-02-16T04:03:28.030Z,5.80
2023-02-16T04:05:56.351Z,5.70
2023-02-16T04:08:23.762Z,5.70
2023-02-16T04:10:51.059Z,5.70
2023-02-16T04:13:18.360Z,5.70
2023-02-16T04:15:45.619Z,5.70
2023-02-16T04:18:12.858Z,5.70
2023-02-16T04:20:40.127Z,5.60
2023-02-16T04:23:08.401Z,5.60
2023-02-16T04:25:35.862Z,5.60
2023-02-16T04:28:03.206Z,5.60
2023-02-16T04:30:32.155Z,5.60
2023-02-16T04:32:59.594Z,5.60
2023-02-16T04:35:27.219Z,5.60
2023-02-16T04:37:54.569Z,5.50
2023-02-16T04:40:21.996Z,5.50
2023-02-16T04:42:49.244Z,5.40
2023-02-16T04:45:16.502Z,5.40
2023-02-16T04:47:43.933Z,5.40
2023-02-16T04:50:11.973Z,5.40
2023-02-16T04:52:39.385Z,5.40
2023-02-16T04:55:08.652Z,5.40
2023-02-16T04:57:35.949Z,5.40
2023-02-16T05:00:04.120Z,5.40
2023-02-16T05:02:32.656Z,5.40
2023-02-16T05:04:59.968Z,5.40
2023-02-16T05:07:27.224Z,5.40
2023-02-16T05:09:54.558Z,5.40
2023-02-16T05:12:40.228Z,5.30
2023-02-16T05:15:07.614Z,5.30
2023-02-16T05:17:34.894Z,5.30
2023-02-16T05:20:02.170Z,5.30
2023-02-16T05:22:33.435Z,5.20
2023-02-16T05:25:01.496Z,5.20
2023-02-16T05:27:30.283Z,5.20
2023-02-16T05:29:58.188Z,5.20
2023-02-16T05:32:25.729Z,5.20
2023-02-16T05:34:53.072Z,5.20
2023-02-16T05:37:20.482Z,5.20
2023-02-16T05:39:47.761Z,5.20
2023-02-16T05:42:15.338Z,5.20
2023-02-16T05:44:42.534Z,5.10
2023-02-16T05:47:09.798Z,5.10
2023-02-16T05:49:37.083Z,5.10
2023-02-16T05:52:04.389Z,5.10
2023-02-16T05:54:31.714Z,5.10
2023-02-16T05:56:59.041Z,5.10
2023-02-16T05:59:26.290Z,5.10
2023-02-16T06:01:54.033Z,5.10
2023-02-16T06:04:22.135Z,5.10
2023-02-16T06:06:49.942Z,5.10
2023-02-16T06:09:17.687Z,5.10
2023-02-16T06:11:45.137Z,5.10
2023-02-16T06:14:18.122Z,5.10
2023-02-16T06:16:47.688Z,5.10
2023-02-16T06:19:16.971Z,5.10
2023-02-16T06:21:44.365Z,5.10
2023-02-16T06:24:13.583Z,5.10
2023-02-16T06:26:41.396Z,5.10
2023-02-16T06:29:09.500Z,5.10
2023-02-16T06:31:37.241Z,5.10
2023-02-16T06:34:05.481Z,5.10
2023-02-16T06:36:34.325Z,5.20
2023-02-16T06:39:01.692Z,5.20
2023-02-16T06:41:31.997Z,5.30
2023-02-16T06:44:00.322Z,5.30
2023-02-16T06:46:28.008Z,5.30
2023-02-16T06:48:55.531Z,5.40
2023-02-16T06:51:23.317Z,5.30
2023-02-16T06:53:50.638Z,5.30
2023-02-16T06:56:17.962Z,5.30
2023-02-16T06:58:45.208Z,5.40
2023-02-16T07:01:12.715Z,5.40
2023-02-16T07:03:41.047Z,5.30
2023-02-16T07:06:08.485Z,5.40
2023-02-16T07:08:36.090Z,5.40
2023-02-16T07:11:04.034Z,5.40
2023-02-16T07:13:36.378Z,5.40
2023-02-16T07:16:05.430Z,5.50
2023-02-16T07:18:33.897Z,5.50
2023-02-16T07:21:01.181Z,5.50
2023-02-16T07:23:28.723Z,5.50
2023-02-16T07:25:55.994Z,5.60
2023-02-16T07:28:23.236Z,5.60
2023-02-16T07:30:51.024Z,5.60
2023-02-16T07:33:18.798Z,5.60
2023-02-16T07:35:45.985Z,5.60
2023-02-16T07:38:13.290Z,5.70
2023-02-16T07:40:41.485Z,5.70
2023-02-16T07:43:08.738Z,5.70
2023-02-16T07:45:36.163Z,5.70
2023-02-16T07:48:03.685Z,5.70
2023-02-16T07:50:31.016Z,5.70
2023-02-16T07:53:00.677Z,5.80
2023-02-16T07:55:28.027Z,5.80
2023-02-16T07:57:58.130Z,5.80
2023-02-16T08:00:26.074Z,5.80
2023-02-16T08:02:53.454Z,5.90
2023-02-16T08:05:20.935Z,5.80
2023-02-16T08:07:48.292Z,5.90
2023-02-16T08:10:16.002Z,5.90
2023-02-16T08:12:43.670Z,5.90
2023-02-16T08:15:12.031Z,6.00
2023-02-16T08:17:39.492Z,6.00
2023-02-16T08:20:08.552Z,6.00
2023-02-16T08:22:36.931Z,6.00
2023-02-16T08:25:06.978Z,6.10
2023-02-16T08:27:35.517Z,6.10
2023-02-16T08:30:03.547Z,6.10
2023-02-16T08:32:31.158Z,6.10
2023-02-16T08:34:58.563Z,6.10
2023-02-16T08:37:26.219Z,6.10
2023-02-16T08:39:53.872Z,6.10
2023-02-16T08:42:21.296Z,6.20
2023-02-16T08:44:48.667Z,6.20
2023-02-16T08:47:16.746Z,6.20
2023-02-16T08:49:44.502Z,6.20
2023-02-16T08:52:12.389Z,6.20
2023-02-16T08:54:41.816Z,6.20
2023-02-16T08:57:09.442Z,6.30
2023-02-16T08:59:36.889Z,6.30
2023-02-16T09:02:04.447Z,6.30
2023-02-16T09:04:32.115Z,6.30
2023-02-16T09:07:00.120Z,6.30
2023-02-16T09:09:27.619Z,6.30
2023-02-16T09:11:54.927Z,6.40
2023-02-16T09:14:22.968Z,6.40
2023-02-16T09:16:50.521Z,6.40
2023-02-16T09:19:20.489Z,6.40
2023-02-16T09:21:50.831Z,6.50
2023-02-16T09:24:19.137Z,6.50
2023-02-16T09:26:46.517Z,6.60
2023-02-16T09:29:14.318Z,6.70
2023-02-16T09:31:44.381Z,6.80
2023-02-16T09:34:21.126Z,6.90
2023-02-16T09:36:49.207Z,7.00
2023-02-16T09:39:17.099Z,7.10
2023-02-16T09:41:50.269Z,7.20
2023-02-16T09:44:55.176Z,7.30
2023-02-16T09:47:33.039Z,7.50
2023-02-16T09:50:06.389Z,7.60
2023-02-16T09:52:40.409Z,7.70
2023-02-16T09:55:14.475Z,7.80
2023-02-16T09:58:18.978Z,7.90
2023-02-16T10:00:54.146Z,8.00
2023-02-16T10:03:32.101Z,8.10
2023-02-16T10:06:14.565Z,8.10
2023-02-16T10:08:46.016Z,8.20
2023-02-16T10:11:42.331Z,8.30
2023-02-16T10:14:15.158Z,8.40
2023-02-16T10:16:54.115Z,8.50
2023-02-16T10:19:26.361Z,8.60
2023-02-16T10:21:59.624Z,8.60
2023-02-16T10:24:31.401Z,8.70
2023-02-16T10:27:05.169Z,8.70
2023-02-16T10:29:35.173Z,8.80
2023-02-16T10:32:12.826Z,8.80
2023-02-16T10:34:53.138Z,8.90
2023-02-16T10:37:29.768Z,8.90
2023-02-16T10:40:20.548Z,8.90
2023-02-16T10:43:07.287Z,8.90
2023-02-16T10:45:51.936Z,8.90
2023-02-16T10:48:21.699Z,9.00
2023-02-16T10:51:12.801Z,9.00
2023-02-16T10:53:47.560Z,9.10
2023-02-16T10:56:39.345Z,9.20
2023-02-16T10:59:14.175Z,9.20
2023-02-16T11:01:46.315Z,9.20
2023-02-16T11:04:52.391Z,9.30
2023-02-16T11:07:22.194Z,9.30
2023-02-16T11:09:53.753Z,9.40
2023-02-16T11:12:38.380Z,9.40
2023-02-16T11:15:23.868Z,9.40
2023-02-16T11:18:04.760Z,9.40
2023-02-16T11:20:44.976Z,9.50
2023-02-16T11:23:29.089Z,9.50
2023-02-16T11:26:10.516Z,9.60
2023-02-16T11:28:40.921Z,9.60
2023-02-16T11:31:26.664Z,9.70
2023-02-16T11:34:06.667Z,9.70
2023-02-16T11:36:35.763Z,9.80
2023-02-16T11:39:02.923Z,9.90
2023-02-16T11:41:33.388Z,9.90
2023-02-16T11:44:02.904Z,10.00
2023-02-16T11:46:38.917Z,10.00
2023-02-16T11:49:31.040Z,10.10
2023-02-16T11:51:59.464Z,10.10
2023-02-16T11:54:27.611Z,10.20
2023-02-16T11:57:04.272Z,10.20
2023-02-16T11:59:38.877Z,10.20
2023-02-16T12:02:12.259Z,10.30
2023-02-16T12:05:14.911Z,10.30
2023-02-16T12:07:50.973Z,10.30
2023-02-16T12:10:29.562Z,10.30
2023-02-16T12:13:17.264Z,10.30
2023-02-16T12:16:11.961Z,10.40
2023-02-16T12:19:05.948Z,10.30
2023-02-16T12:21:46.781Z,10.40
2023-02-16T12:24:39.266Z,10.40
2023-02-16T12:27:37.642Z,10.40
2023-02-16T12:30:41.173Z,10.40
2023-02-16T12:33:14.361Z,10.40
2023-02-16T12:36:03.775Z,10.40
2023-02-16T12:39:02.474Z,10.50
2023-02-16T12:41:52.351Z,10.40
2023-02-16T12:44:35.051Z,10.50
2023-02-16T12:47:06.300Z,10.50
2023-02-16T12:49:55.479Z,10.50
2023-02-16T12:52:35.416Z,10.50
2023-02-16T12:55:41.867Z,10.50
2023-02-16T12:58:30.383Z,10.60
2023-02-16T13:01:12.070Z,10.60
2023-02-16T13:04:10.595Z,10.60
2023-02-16T13:06:47.225Z,10.60
2023-02-16T13:09:40.654Z,10.70
2023-02-16T13:12:32.135Z,10.70
2023-02-16T13:15:14.355Z,10.70
2023-02-16T13:17:46.847Z,10.70
2023-02-16T13:20:17.481Z,10.80
2023-02-16T13:22:53.846Z,10.80
2023-02-16T13:25:46.887Z,10.90
2023-02-16T13:28:46.188Z,10.90
2023-02-16T13:31:32.006Z,11.00
2023-02-16T13:34:14.133Z,11.00
2023-02-16T13:36:44.593Z,11.10
2023-02-16T13:39:59.395Z,11.10
2023-02-16T13:42:41.467Z,11.20
2023-02-16T13:45:23.276Z,11.20
2023-02-16T13:47:53.213Z,11.20
2023-02-16T13:50:23.971Z,11.30
2023-02-16T13:52:54.308Z,11.40
2023-02-16T13:55:31.382Z,11.50
2023-02-16T13:58:12.842Z,11.60
2023-02-16T14:00:47.592Z,11.70
2023-02-16T14:03:18.814Z,11.80
2023-02-16T14:05:48.593Z,11.90
2023-02-16T14:08:25.468Z,12.00
2023-02-16T14:10:55.845Z,12.10
2023-02-16T14:13:36.816Z,12.20
2023-02-16T14:16:12.211Z,12.30
2023-02-16T14:18:58.887Z,12.40
2023-02-16T14:21:32.696Z,12.50
2023-02-16T14:24:03.125Z,12.60
2023-02-16T14:26:31.980Z,12.70
2023-02-16T14:29:22.102Z,12.80
2023-02-16T14:32:16.126Z,12.90
2023-02-16T14:34:52.110Z,13.00
2023-02-16T14:37:30.505Z,13.10
2023-02-16T14:40:16.214Z,13.20
2023-02-16T14:42:53.409Z,13.30
2023-02-16T14:45:42.554Z,13.40
2023-02-16T14:48:45.303Z,13.40
2023-02-16T14:51:51.351Z,13.50
2023-02-16T14:54:37.149Z,13.50
2023-02-16T14:57:21.591Z,13.50
2023-02-16T15:00:08.448Z,13.50
2023-02-16T15:02:40.636Z,13.50
2023-02-16T15:05:20.364Z,13.50
2023-02-16T15:07:50.801Z,13.50
2023-02-16T15:10:26.889Z,13.50
2023-02-16T15:12:56.405Z,13.50
2023-02-16T15:15:45.138Z,13.40
2023-02-16T15:18:22.476Z,13.40
2023-02-16T15:20:53.580Z,13.40
2023-02-16T15:23:23.347Z,13.30
2023-02-16T15:26:03.467Z,13.30
2023-02-16T15:28:33.979Z,13.30
2023-02-16T15:31:18.114Z,13.20
2023-02-16T15:34:08.179Z,13.20
2023-02-16T15:36:45.695Z,13.20
2023-02-16T15:39:38.442Z,13.10
2023-02-16T15:42:37.456Z,13.10
2023-02-16T15:45:44.700Z,13.10
2023-02-16T15:48:20.934Z,13.00
2023-02-16T15:50:49.634Z,13.00
2023-02-16T15:53:49.430Z,12.90
2023-02-16T15:56:28.022Z,12.90
2023-02-16T15:58:58.622Z,12.90
2023-02-16T16:01:33.168Z,12.80
2023-02-16T16:04:16.839Z,12.80
2023-02-16T16:06:46.122Z,12.80
2023-02-16T16:09:28.762Z,12.80
2023-02-16T16:11:58.860Z,12.80
2023-02-16T16:14:27.421Z,12.70
2023-02-16T16:16:55.803Z,12.70
2023-02-16T16:19:34.525Z,12.60
2023-02-16T16:22:04.513Z,12.60
2023-02-16T16:24:43.314Z,12.50
2023-02-16T16:27:12.909Z,12.50
2023-02-16T16:29:45.446Z,12.50
2023-02-16T16:32:31.086Z,12.50
2023-02-16T16:34:59.406Z,12.40
2023-02-16T16:37:30.580Z,12.40
2023-02-16T16:40:20.030Z,12.40
2023-02-16T16:43:02.821Z,12.30
2023-02-16T16:45:43.600Z,12.30
2023-02-16T16:48:36.359Z,12.30
2023-02-16T16:51:34.172Z,12.20
2023-02-16T16:54:10.104Z,12.30
2023-02-16T16:56:39.942Z,12.20
2023-02-16T16:59:08.003Z,12.20
2023-02-16T17:01:35.769Z,12.20
2023-02-16T17:04:03.208Z,12.10
2023-02-16T17:06:30.744Z,12.10
2023-02-16T17:08:58.060Z,12.10
2023-02-16T17:11:26.977Z,12.10
2023-02-16T17:13:56.096Z,12.10
2023-02-16T17:16:30.889Z,12.10
2023-02-16T17:18:58.108Z,12.00
2023-02-16T17:21:25.398Z,12.00
2023-02-16T17:23:53.598Z,12.00
2023-02-16T17:26:22.423Z,12.00
2023-02-16T17:28:50.346Z,12.00
2023-02-16T17:31:18.108Z,12.00
2023-02-16T17:33:45.611Z,12.00
2023-02-16T17:36:15.610Z,12.00
2023-02-16T17:38:43.833Z,12.00
2023-02-16T17:41:24.131Z,12.00
2023-02-16T17:43:51.911Z,12.00
2023-02-16T17:46:21.521Z,12.00
2023-02-16T17:48:55.055Z,12.00
2023-02-16T17:51:24.210Z,12.00
2023-02-16T17:53:51.730Z,12.00
2023-02-16T17:56:21.753Z,12.00
2023-02-16T17:58:49.230Z,12.00
2023-02-16T18:01:17.816Z,12.00
2023-02-16T18:03:48.150Z,12.00
2023-02-16T18:06:17.794Z,12.00
2023-02-16T18:08:45.354Z,12.00
2023-02-16T18:11:12.978Z,12.00
2023-02-16T18:13:42.299Z,12.00
2023-02-16T18:16:15.334Z,12.00
2023-02-16T18:18:42.681Z,12.00
2023-02-16T18:21:10.343Z,11.90
2023-02-16T18:23:38.469Z,11.90
2023-02-16T18:26:06.992Z,12.00
2023-02-16T18:28:35.057Z,11.90
2023-02-16T18:31:06.555Z,11.90
2023-02-16T18:33:34.761Z,11.90
2023-02-16T18:36:02.908Z,11.90
2023-02-16T18:38:30.673Z,11.90
2023-02-16T18:40:58.048Z,11.90
2023-02-16T18:43:25.408Z,11.90
2023-02-16T18:45:52.840Z,11.90
2023-02-16T18:48:20.228Z,11.90
2023-02-16T18:50:47.713Z,11.90
2023-02-16T18:53:17.629Z,11.90
2023-02-16T18:55:44.937Z,11.90
2023-02-16T18:58:14.552Z,11.90
2023-02-16T19:00:42.242Z,11.90
2023-02-16T19:03:11.715Z,11.90
2023-02-16T19:05:39.337Z,11.90
2023-02-16T19:08:06.880Z,11.90
2023-02-16T19:10:34.900Z,11.90
2023-02-16T19:13:02.452Z,11.90
2023-02-16T19:15:31.657Z,11.90
2023-02-16T19:18:00.041Z,11.90
2023-02-16T19:20:29.810Z,11.90
2023-02-16T19:22:57.963Z,11.90
2023-02-16T19:25:27.028Z,11.90
2023-02-16T19:27:55.733Z,11.90
2023-02-16T19:30:24.610Z,11.90
2023-02-16T19:32:52.418Z,11.90
2023-02-16T19:35:20.341Z,11.90
2023-02-16T19:37:48.239Z,11.90
2023-02-16T19:40:16.638Z,11.90
2023-02-16T19:42:47.639Z,11.90
2023-02-16T19:45:15.606Z,11.90
2023-02-16T19:47:43.410Z,11.90
2023-02-16T19:50:11.496Z,11.80
2023-02-16T19:52:39.680Z,11.80
2023-02-16T19:55:11.589Z,11.80
2023-02-16T19:57:40.104Z,11.80
2023-02-16T20:00:13.642Z,11.80
2023-02-16T20:02:44.703Z,11.80
2023-02-16T20:05:17.092Z,11.80
2023-02-16T20:07:52.180Z,11.70
2023-02-16T20:10:40.203Z,11.70
2023-02-16T20:13:11.671Z,11.70
2023-02-16T20:15:40.056Z,11.70
2023-02-16T20:18:13.994Z,11.70
2023-02-16T20:20:46.043Z,11.70
2023-02-16T20:23:13.598Z,11.70
2023-02-16T20:25:47.331Z,11.70
2023-02-16T20:28:14.880Z,11.70
2023-02-16T20:30:42.801Z,11.70
2023-02-16T20:33:14.836Z,11.70
2023-02-16T20:35:43.212Z,11.70
2023-02-16T20:38:10.583Z,11.70
2023-02-16T20:40:39.438Z,11.70
2023-02-16T20:43:06.913Z,11.70
2023-02-16T20:45:35.440Z,11.70
2023-02-16T20:48:04.104Z,11.70
2023-02-16T20:50:31.405Z,11.70
2023-02-16T20:52:59.256Z,11.70
2023-02-16T20:55:26.848Z,11.70
2023-02-16T20:57:55.079Z,11.70
2023-02-16T21:00:24.638Z,11.70
2023-02-16T21:02:52.910Z,11.70
2023-02-16T21:05:22.125Z,11.70
2023-02-16T21:07:50.101Z,11.70
2023-02-16T21:10:17.564Z,11.70
2023-02-16T21:12:45.312Z,11.70
2023-02-16T21:15:12.863Z,11.70
2023-02-16T21:17:40.380Z,11.70
2023-02-16T21:20:08.970Z,11.70
2023-02-16T21:22:37.827Z,11.70
2023-02-16T21:25:05.660Z,11.70
2023-02-16T21:27:32.955Z,11.70
2023-02-16T21:30:00.506Z,11.70
2023-02-16T21:32:27.978Z,11.70
2023-02-16T21:34:55.581Z,11.70
2023-02-16T21:37:23.069Z,11.70
2023-02-16T21:40:09.388Z,11.70
2023-02-16T21:42:36.629Z,11.70
2023-02-16T21:45:13.202Z,11.70
2023-02-16T21:48:00.960Z,11.70
2023-02-16T21:50:29.379Z,11.70
2023-02-16T21:52:59.720Z,11.70
2023-02-16T21:55:46.002Z,11.70
2023-02-16T21:58:13.381Z,11.70
2023-02-16T22:00:41.959Z,11.70
2023-02-16T22:03:11.661Z,11.80
2023-02-16T22:05:39.012Z,11.80
2023-02-16T22:08:06.465Z,11.80
2023-02-16T22:10:34.764Z,11.80
2023-02-16T22:13:02.044Z,11.80
2023-02-16T22:15:29.603Z,11.80
2023-02-16T22:17:57.006Z,11.80
2023-02-16T22:20:24.610Z,11.80
2023-02-16T22:22:55.026Z,11.80
2023-02-16T22:25:23.132Z,11.80
2023-02-16T22:27:51.515Z,11.80
2023-02-16T22:30:19.422Z,11.80
2023-02-16T22:32:46.787Z,11.80
2023-02-16T22:35:14.204Z,11.80
2023-02-16T22:37:41.641Z,11.80
2023-02-16T22:40:09.292Z,11.80
2023-02-16T22:42:36.666Z,11.80
2023-02-16T22:45:04.559Z,11.90
2023-02-16T22:47:31.792Z,11.90
2023-02-16T22:49:59.384Z,11.90
2023-02-16T22:52:26.963Z,11.90
2023-02-16T22:54:54.194Z,11.80
2023-02-16T22:57:21.472Z,11.90
2023-02-16T22:59:48.777Z,11.90
2023-02-16T23:02:16.091Z,11.90
2023-02-16T23:04:43.533Z,11.90
2023-02-16T23:07:10.910Z,11.90
2023-02-16T23:09:38.313Z,11.90
2023-02-16T23:12:06.414Z,11.90
2023-02-16T23:14:36.867Z,11.90
2023-02-16T23:17:04.142Z,11.90
2023-02-16T23:19:32.522Z,12.00
2023-02-16T23:21:59.761Z,12.00
2023-02-16T23:24:27.097Z,12.00
2023-02-16T23:26:54.891Z,12.00
2023-02-16T23:29:22.430Z,12.00
2023-02-16T23:31:49.751Z,12.00
2023-02-16T23:34:17.938Z,12.10
2023-02-16T23:36:46.054Z,12.10
2023-02-16T23:39:16.599Z,12.10
2023-02-16T23:41:44.420Z,12.10
2023-02-16T23:44:17.426Z,12.10
2023-02-16T23:46:45.803Z,12.10
2023-02-16T23:49:13.502Z,12.10
2023-02-16T23:51:40.743Z,12.20
2023-02-16T23:54:10.838Z,12.20
2023-02-16T23:56:40.869Z,12.20
2023-02-16T23:59:08.388Z,12.20
